sensor_id;sensor_type;location;lat;lon;timestamp;P1;durP1;ratioP1;P2;durP2;ratioP2
77085;SDS011;66014;53.134;18.006;2023-06-01T00:01:08;7.30;;;3.00;;
77085;SDS011;66014;53.134;18.006;2023-06-01T00:03:43;6.90;;;2.60;;
77085;SDS011;66014;53.134;18.006;2023-06-01T00:06:10;9.80;;;3.20;;
77085;SDS011;66014;53.134;18.006;2023-06-01T00:08:37;6.30;;;2.50;;
77085;SDS011;66014;53.134;18.006;2023-06-01T00:11:04;7.00;;;2.20;;
77085;SDS011;66014;53.134;18.006;2023-06-01T00:13:31;6.20;;;2.60;;
77085;SDS011;66014;53.134;18.006;2023-06-01T00:15:57;7.00;;;2.00;;
77085;SDS011;66014;53.134;18.006;2023-06-01T00:18:24;6.30;;;2.50;;
77085;SDS011;66014;53.134;18.006;2023-06-01T00:20:53;5.50;;;2.30;;
77085;SDS011;66014;53.134;18.006;2023-06-01T00:23:20;6.90;;;2.80;;
77085;SDS011;66014;53.134;18.006;2023-06-01T00:25:51;7.60;;;2.60;;
77085;SDS011;66014;53.134;18.006;2023-06-01T00:28:21;6.10;;;2.60;;
77085;SDS011;66014;53.134;18.006;2023-06-01T00:30:47;7.40;;;2.40;;
77085;SDS011;66014;53.134;18.006;2023-06-01T00:33:14;6.90;;;2.40;;
77085;SDS011;66014;53.134;18.006;2023-06-01T00:35:41;6.10;;;2.50;;
77085;SDS011;66014;53.134;18.006;2023-06-01T00:38:07;5.20;;;2.20;;
77085;SDS011;66014;53.134;18.006;2023-06-01T00:40:34;5.90;;;2.60;;
77085;SDS011;66014;53.134;18.006;2023-06-01T00:43:01;7.70;;;2.70;;
77085;SDS011;66014;53.134;18.006;2023-06-01T00:45:27;5.20;;;2.20;;
77085;SDS011;66014;53.134;18.006;2023-06-01T00:47:56;5.20;;;2.50;;
77085;SDS011;66014;53.134;18.006;2023-06-01T00:50:25;5.50;;;2.30;;
77085;SDS011;66014;53.134;18.006;2023-06-01T00:52:52;5.70;;;2.30;;
77085;SDS011;66014;53.134;18.006;2023-06-01T00:55:20;7.70;;;2.90;;
77085;SDS011;66014;53.134;18.006;2023-06-01T00:57:46;7.30;;;2.60;;
77085;SDS011;66014;53.134;18.006;2023-06-01T01:00:17;8.10;;;2.50;;
77085;SDS011;66014;53.134;18.006;2023-06-01T01:02:44;4.70;;;2.40;;
77085;SDS011;66014;53.134;18.006;2023-06-01T01:05:11;10.50;;;3.20;;
77085;SDS011;66014;53.134;18.006;2023-06-01T01:16:00;3.60;;;1.80;;
77085;SDS011;66014;53.134;18.006;2023-06-01T01:18:36;5.00;;;2.70;;
77085;SDS011;66014;53.134;18.006;2023-06-01T01:21:12;4.40;;;2.40;;
77085;SDS011;66014;53.134;18.006;2023-06-01T01:24:06;8.60;;;3.00;;
77085;SDS011;66014;53.134;18.006;2023-06-01T01:26:51;7.10;;;2.60;;
77085;SDS011;66014;53.134;18.006;2023-06-01T01:29:31;7.40;;;2.60;;
77085;SDS011;66014;53.134;18.006;2023-06-01T01:32:00;6.80;;;3.00;;
77085;SDS011;66014;53.134;18.006;2023-06-01T01:34:29;7.20;;;3.00;;
77085;SDS011;66014;53.134;18.006;2023-06-01T01:36:58;6.60;;;2.80;;
77085;SDS011;66014;53.134;18.006;2023-06-01T01:39:25;7.20;;;3.30;;
77085;SDS011;66014;53.134;18.006;2023-06-01T01:41:52;5.90;;;3.40;;
77085;SDS011;66014;53.134;18.006;2023-06-01T01:44:18;7.50;;;3.30;;
77085;SDS011;66014;53.134;18.006;2023-06-01T01:46:52;11.90;;;3.50;;
77085;SDS011;66014;53.134;18.006;2023-06-01T01:49:37;6.50;;;3.00;;
77085;SDS011;66014;53.134;18.006;2023-06-01T01:52:07;8.10;;;3.70;;
77085;SDS011;66014;53.134;18.006;2023-06-01T01:54:40;5.70;;;2.50;;
77085;SDS011;66014;53.134;18.006;2023-06-01T01:57:08;7.90;;;2.80;;
77085;SDS011;66014;53.134;18.006;2023-06-01T01:59:35;5.70;;;2.50;;
77085;SDS011;66014;53.134;18.006;2023-06-01T02:02:02;7.80;;;2.40;;
77085;SDS011;66014;53.134;18.006;2023-06-01T02:04:29;6.80;;;2.80;;
77085;SDS011;66014;53.134;18.006;2023-06-01T02:06:56;6.30;;;2.40;;
77085;SDS011;66014;53.134;18.006;2023-06-01T02:09:23;5.60;;;2.90;;
77085;SDS011;66014;53.134;18.006;2023-06-01T02:11:49;6.10;;;2.80;;
77085;SDS011;66014;53.134;18.006;2023-06-01T02:14:16;6.30;;;2.70;;
77085;SDS011;66014;53.134;18.006;2023-06-01T02:16:43;9.10;;;2.90;;
77085;SDS011;66014;53.134;18.006;2023-06-01T02:19:10;6.00;;;2.70;;
77085;SDS011;66014;53.134;18.006;2023-06-01T02:21:37;5.20;;;2.40;;
77085;SDS011;66014;53.134;18.006;2023-06-01T02:24:04;10.20;;;2.70;;
77085;SDS011;66014;53.134;18.006;2023-06-01T02:26:33;4.80;;;2.30;;
77085;SDS011;66014;53.134;18.006;2023-06-01T02:29:00;6.10;;;2.50;;
77085;SDS011;66014;53.134;18.006;2023-06-01T02:31:28;6.90;;;2.90;;
77085;SDS011;66014;53.134;18.006;2023-06-01T02:33:55;8.10;;;2.90;;
77085;SDS011;66014;53.134;18.006;2023-06-01T02:36:22;7.40;;;2.80;;
77085;SDS011;66014;53.134;18.006;2023-06-01T02:38:50;5.20;;;2.50;;
77085;SDS011;66014;53.134;18.006;2023-06-01T02:41:17;6.60;;;2.70;;
77085;SDS011;66014;53.134;18.006;2023-06-01T02:43:43;7.90;;;3.00;;
77085;SDS011;66014;53.134;18.006;2023-06-01T02:46:10;6.30;;;2.90;;
77085;SDS011;66014;53.134;18.006;2023-06-01T02:48:37;6.10;;;2.90;;
77085;SDS011;66014;53.134;18.006;2023-06-01T02:51:03;6.30;;;2.70;;
77085;SDS011;66014;53.134;18.006;2023-06-01T02:53:31;5.60;;;2.90;;
77085;SDS011;66014;53.134;18.006;2023-06-01T02:55:57;6.40;;;2.50;;
77085;SDS011;66014;53.134;18.006;2023-06-01T02:58:24;7.50;;;2.80;;
77085;SDS011;66014;53.134;18.006;2023-06-01T03:00:51;6.20;;;2.70;;
77085;SDS011;66014;53.134;18.006;2023-06-01T03:03:17;4.70;;;2.30;;
77085;SDS011;66014;53.134;18.006;2023-06-01T03:05:44;5.20;;;2.40;;
77085;SDS011;66014;53.134;18.006;2023-06-01T03:08:14;5.70;;;2.60;;
77085;SDS011;66014;53.134;18.006;2023-06-01T03:10:43;9.80;;;2.80;;
77085;SDS011;66014;53.134;18.006;2023-06-01T03:13:09;4.80;;;2.60;;
77085;SDS011;66014;53.134;18.006;2023-06-01T03:15:36;5.20;;;2.30;;
77085;SDS011;66014;53.134;18.006;2023-06-01T03:18:04;5.60;;;2.40;;
77085;SDS011;66014;53.134;18.006;2023-06-01T03:20:37;5.20;;;2.60;;
77085;SDS011;66014;53.134;18.006;2023-06-01T03:23:03;7.00;;;3.20;;
77085;SDS011;66014;53.134;18.006;2023-06-01T03:25:30;6.70;;;2.70;;
77085;SDS011;66014;53.134;18.006;2023-06-01T03:27:56;7.30;;;3.10;;
77085;SDS011;66014;53.134;18.006;2023-06-01T03:30:23;9.00;;;2.80;;
77085;SDS011;66014;53.134;18.006;2023-06-01T03:32:49;8.20;;;2.70;;
77085;SDS011;66014;53.134;18.006;2023-06-01T03:35:16;7.60;;;2.40;;
77085;SDS011;66014;53.134;18.006;2023-06-01T03:37:43;4.80;;;2.00;;
77085;SDS011;66014;53.134;18.006;2023-06-01T03:40:11;8.10;;;2.80;;
77085;SDS011;66014;53.134;18.006;2023-06-01T03:42:38;6.80;;;2.80;;
77085;SDS011;66014;53.134;18.006;2023-06-01T03:45:06;8.50;;;2.90;;
77085;SDS011;66014;53.134;18.006;2023-06-01T03:47:33;7.10;;;2.70;;
77085;SDS011;66014;53.134;18.006;2023-06-01T03:50:00;7.00;;;2.70;;
77085;SDS011;66014;53.134;18.006;2023-06-01T03:52:28;5.30;;;2.70;;
77085;SDS011;66014;53.134;18.006;2023-06-01T03:54:55;4.90;;;2.60;;
77085;SDS011;66014;53.134;18.006;2023-06-01T03:57:22;5.30;;;2.40;;
77085;SDS011;66014;53.134;18.006;2023-06-01T03:59:49;5.80;;;2.30;;
77085;SDS011;66014;53.134;18.006;2023-06-01T04:02:17;6.20;;;3.10;;
77085;SDS011;66014;53.134;18.006;2023-06-01T04:04:45;6.10;;;2.50;;
77085;SDS011;66014;53.134;18.006;2023-06-01T04:07:13;6.20;;;2.70;;
77085;SDS011;66014;53.134;18.006;2023-06-01T04:09:41;4.70;;;2.50;;
77085;SDS011;66014;53.134;18.006;2023-06-01T04:12:08;7.10;;;2.30;;
77085;SDS011;66014;53.134;18.006;2023-06-01T04:14:35;4.70;;;2.40;;
77085;SDS011;66014;53.134;18.006;2023-06-01T04:17:02;5.10;;;2.40;;
77085;SDS011;66014;53.134;18.006;2023-06-01T04:19:29;7.90;;;2.90;;
77085;SDS011;66014;53.134;18.006;2023-06-01T04:21:56;6.30;;;2.50;;
77085;SDS011;66014;53.134;18.006;2023-06-01T04:24:22;7.50;;;2.90;;
77085;SDS011;66014;53.134;18.006;2023-06-01T04:26:49;9.20;;;3.00;;
77085;SDS011;66014;53.134;18.006;2023-06-01T04:29:16;4.90;;;2.30;;
77085;SDS011;66014;53.134;18.006;2023-06-01T04:31:45;4.70;;;2.40;;
77085;SDS011;66014;53.134;18.006;2023-06-01T04:34:12;6.00;;;2.20;;
77085;SDS011;66014;53.134;18.006;2023-06-01T04:36:38;4.60;;;2.30;;
77085;SDS011;66014;53.134;18.006;2023-06-01T04:39:05;6.00;;;2.10;;
77085;SDS011;66014;53.134;18.006;2023-06-01T04:41:34;6.20;;;3.10;;
77085;SDS011;66014;53.134;18.006;2023-06-01T04:44:03;12.00;;;3.00;;
77085;SDS011;66014;53.134;18.006;2023-06-01T04:46:33;7.10;;;2.60;;
77085;SDS011;66014;53.134;18.006;2023-06-01T04:49:01;7.00;;;2.90;;
77085;SDS011;66014;53.134;18.006;2023-06-01T04:51:28;8.20;;;2.60;;
77085;SDS011;66014;53.134;18.006;2023-06-01T04:53:57;6.10;;;2.70;;
77085;SDS011;66014;53.134;18.006;2023-06-01T04:56:24;7.40;;;2.60;;
77085;SDS011;66014;53.134;18.006;2023-06-01T04:58:54;8.00;;;2.80;;
77085;SDS011;66014;53.134;18.006;2023-06-01T05:01:21;10.60;;;3.10;;
77085;SDS011;66014;53.134;18.006;2023-06-01T05:03:52;6.50;;;2.70;;
77085;SDS011;66014;53.134;18.006;2023-06-01T05:06:21;7.70;;;2.90;;
77085;SDS011;66014;53.134;18.006;2023-06-01T05:08:48;6.70;;;2.90;;
77085;SDS011;66014;53.134;18.006;2023-06-01T05:11:14;8.70;;;2.90;;
77085;SDS011;66014;53.134;18.006;2023-06-01T05:13:41;8.70;;;2.90;;
77085;SDS011;66014;53.134;18.006;2023-06-01T05:16:08;5.10;;;2.30;;
77085;SDS011;66014;53.134;18.006;2023-06-01T05:18:35;7.50;;;2.70;;
77085;SDS011;66014;53.134;18.006;2023-06-01T05:21:02;7.10;;;2.80;;
77085;SDS011;66014;53.134;18.006;2023-06-01T05:23:28;6.30;;;2.90;;
77085;SDS011;66014;53.134;18.006;2023-06-01T05:25:55;8.30;;;3.10;;
77085;SDS011;66014;53.134;18.006;2023-06-01T05:28:29;6.40;;;2.70;;
77085;SDS011;66014;53.134;18.006;2023-06-01T05:30:56;6.80;;;2.50;;
77085;SDS011;66014;53.134;18.006;2023-06-01T05:33:23;5.90;;;2.50;;
77085;SDS011;66014;53.134;18.006;2023-06-01T05:35:50;7.20;;;2.80;;
77085;SDS011;66014;53.134;18.006;2023-06-01T05:38:19;9.60;;;2.70;;
77085;SDS011;66014;53.134;18.006;2023-06-01T05:40:46;7.60;;;2.20;;
77085;SDS011;66014;53.134;18.006;2023-06-01T05:43:13;6.80;;;3.00;;
77085;SDS011;66014;53.134;18.006;2023-06-01T05:45:40;9.50;;;2.70;;
77085;SDS011;66014;53.134;18.006;2023-06-01T05:48:07;6.00;;;2.70;;
77085;SDS011;66014;53.134;18.006;2023-06-01T05:50:33;6.20;;;2.70;;
77085;SDS011;66014;53.134;18.006;2023-06-01T05:53:00;6.10;;;2.70;;
77085;SDS011;66014;53.134;18.006;2023-06-01T05:55:26;10.10;;;3.20;;
77085;SDS011;66014;53.134;18.006;2023-06-01T05:57:53;7.10;;;2.40;;
77085;SDS011;66014;53.134;18.006;2023-06-01T06:00:19;7.70;;;2.40;;
77085;SDS011;66014;53.134;18.006;2023-06-01T06:02:46;6.70;;;2.80;;
77085;SDS011;66014;53.134;18.006;2023-06-01T06:05:12;6.60;;;2.30;;
77085;SDS011;66014;53.134;18.006;2023-06-01T06:07:39;8.50;;;2.90;;
77085;SDS011;66014;53.134;18.006;2023-06-01T06:10:06;8.40;;;3.20;;
77085;SDS011;66014;53.134;18.006;2023-06-01T06:12:33;7.10;;;2.80;;
77085;SDS011;66014;53.134;18.006;2023-06-01T06:14:59;7.50;;;2.90;;
77085;SDS011;66014;53.134;18.006;2023-06-01T06:17:26;6.70;;;2.80;;
77085;SDS011;66014;53.134;18.006;2023-06-01T06:19:52;8.90;;;3.10;;
77085;SDS011;66014;53.134;18.006;2023-06-01T06:22:19;5.40;;;2.60;;
77085;SDS011;66014;53.134;18.006;2023-06-01T06:24:51;7.80;;;2.50;;
77085;SDS011;66014;53.134;18.006;2023-06-01T06:27:18;10.10;;;3.00;;
77085;SDS011;66014;53.134;18.006;2023-06-01T06:29:44;10.60;;;3.00;;
77085;SDS011;66014;53.134;18.006;2023-06-01T06:32:11;9.90;;;2.90;;
77085;SDS011;66014;53.134;18.006;2023-06-01T06:34:44;11.20;;;2.70;;
77085;SDS011;66014;53.134;18.006;2023-06-01T06:37:13;6.30;;;2.40;;
77085;SDS011;66014;53.134;18.006;2023-06-01T06:39:39;8.20;;;2.90;;
77085;SDS011;66014;53.134;18.006;2023-06-01T06:42:08;7.90;;;2.90;;
77085;SDS011;66014;53.134;18.006;2023-06-01T06:44:34;5.90;;;2.50;;
77085;SDS011;66014;53.134;18.006;2023-06-01T06:47:01;7.00;;;2.60;;
77085;SDS011;66014;53.134;18.006;2023-06-01T06:49:30;7.90;;;3.10;;
77085;SDS011;66014;53.134;18.006;2023-06-01T06:51:57;9.20;;;2.80;;
77085;SDS011;66014;53.134;18.006;2023-06-01T06:54:25;5.90;;;2.30;;
77085;SDS011;66014;53.134;18.006;2023-06-01T06:56:51;6.30;;;2.40;;
77085;SDS011;66014;53.134;18.006;2023-06-01T06:59:21;10.10;;;2.30;;
77085;SDS011;66014;53.134;18.006;2023-06-01T07:01:48;9.30;;;2.40;;
77085;SDS011;66014;53.134;18.006;2023-06-01T07:04:17;6.20;;;2.30;;
77085;SDS011;66014;53.134;18.006;2023-06-01T07:06:44;5.80;;;2.40;;
77085;SDS011;66014;53.134;18.006;2023-06-01T07:09:10;6.90;;;2.30;;
77085;SDS011;66014;53.134;18.006;2023-06-01T07:11:37;7.10;;;2.30;;
77085;SDS011;66014;53.134;18.006;2023-06-01T07:14:06;8.90;;;2.80;;
77085;SDS011;66014;53.134;18.006;2023-06-01T07:16:34;9.80;;;2.30;;
77085;SDS011;66014;53.134;18.006;2023-06-01T07:19:02;8.10;;;2.70;;
77085;SDS011;66014;53.134;18.006;2023-06-01T07:21:29;8.20;;;2.30;;
77085;SDS011;66014;53.134;18.006;2023-06-01T07:23:57;8.70;;;2.70;;
77085;SDS011;66014;53.134;18.006;2023-06-01T07:26:26;7.40;;;2.10;;
77085;SDS011;66014;53.134;18.006;2023-06-01T07:29:26;7.50;;;2.50;;
77085;SDS011;66014;53.134;18.006;2023-06-01T07:31:56;8.90;;;2.10;;
77085;SDS011;66014;53.134;18.006;2023-06-01T07:34:22;7.20;;;2.00;;
77085;SDS011;66014;53.134;18.006;2023-06-01T07:37:01;7.70;;;2.20;;
77085;SDS011;66014;53.134;18.006;2023-06-01T07:39:34;5.90;;;2.00;;
77085;SDS011;66014;53.134;18.006;2023-06-01T07:42:06;7.90;;;2.30;;
77085;SDS011;66014;53.134;18.006;2023-06-01T07:44:38;7.40;;;1.90;;
77085;SDS011;66014;53.134;18.006;2023-06-01T07:47:21;6.50;;;1.90;;
77085;SDS011;66014;53.134;18.006;2023-06-01T07:49:53;7.70;;;2.10;;
77085;SDS011;66014;53.134;18.006;2023-06-01T07:52:31;6.00;;;2.20;;
77085;SDS011;66014;53.134;18.006;2023-06-01T07:54:59;7.60;;;2.10;;
77085;SDS011;66014;53.134;18.006;2023-06-01T07:57:26;8.90;;;2.20;;
77085;SDS011;66014;53.134;18.006;2023-06-01T07:59:54;5.90;;;1.90;;
77085;SDS011;66014;53.134;18.006;2023-06-01T08:02:23;8.20;;;2.20;;
77085;SDS011;66014;53.134;18.006;2023-06-01T08:04:51;4.70;;;1.70;;
77085;SDS011;66014;53.134;18.006;2023-06-01T08:07:25;7.30;;;2.40;;
77085;SDS011;66014;53.134;18.006;2023-06-01T08:09:56;8.20;;;2.60;;
77085;SDS011;66014;53.134;18.006;2023-06-01T08:12:31;8.40;;;2.90;;
77085;SDS011;66014;53.134;18.006;2023-06-01T08:15:06;6.00;;;2.10;;
77085;SDS011;66014;53.134;18.006;2023-06-01T08:17:50;5.10;;;1.80;;
77085;SDS011;66014;53.134;18.006;2023-06-01T08:20:32;6.50;;;2.10;;
77085;SDS011;66014;53.134;18.006;2023-06-01T08:23:03;6.50;;;2.00;;
77085;SDS011;66014;53.134;18.006;2023-06-01T08:25:31;5.40;;;1.80;;
77085;SDS011;66014;53.134;18.006;2023-06-01T08:28:05;8.40;;;2.30;;
77085;SDS011;66014;53.134;18.006;2023-06-01T08:30:34;4.20;;;1.80;;
77085;SDS011;66014;53.134;18.006;2023-06-01T08:33:16;5.70;;;1.90;;
77085;SDS011;66014;53.134;18.006;2023-06-01T08:35:47;8.40;;;1.80;;
77085;SDS011;66014;53.134;18.006;2023-06-01T08:38:34;6.40;;;1.80;;
77085;SDS011;66014;53.134;18.006;2023-06-01T08:41:09;6.70;;;2.10;;
77085;SDS011;66014;53.134;18.006;2023-06-01T08:43:39;5.70;;;1.80;;
77085;SDS011;66014;53.134;18.006;2023-06-01T08:46:08;7.00;;;2.30;;
77085;SDS011;66014;53.134;18.006;2023-06-01T08:48:54;6.10;;;1.90;;
77085;SDS011;66014;53.134;18.006;2023-06-01T08:51:31;10.40;;;2.20;;
77085;SDS011;66014;53.134;18.006;2023-06-01T08:54:12;5.10;;;2.10;;
77085;SDS011;66014;53.134;18.006;2023-06-01T08:56:44;7.60;;;2.20;;
77085;SDS011;66014;53.134;18.006;2023-06-01T08:59:11;4.40;;;2.00;;
77085;SDS011;66014;53.134;18.006;2023-06-01T09:01:40;6.60;;;2.20;;
77085;SDS011;66014;53.134;18.006;2023-06-01T09:04:07;8.70;;;1.90;;
77085;SDS011;66014;53.134;18.006;2023-06-01T09:06:36;6.10;;;2.50;;
77085;SDS011;66014;53.134;18.006;2023-06-01T09:09:07;7.40;;;2.10;;
77085;SDS011;66014;53.134;18.006;2023-06-01T09:11:38;5.10;;;2.30;;
77085;SDS011;66014;53.134;18.006;2023-06-01T09:16:47;7.80;;;2.40;;
77085;SDS011;66014;53.134;18.006;2023-06-01T09:19:14;6.90;;;2.50;;
77085;SDS011;66014;53.134;18.006;2023-06-01T09:22:03;7.80;;;2.10;;
77085;SDS011;66014;53.134;18.006;2023-06-01T09:24:29;5.10;;;2.00;;
77085;SDS011;66014;53.134;18.006;2023-06-01T09:26:59;5.70;;;2.00;;
77085;SDS011;66014;53.134;18.006;2023-06-01T09:29:26;4.50;;;2.00;;
77085;SDS011;66014;53.134;18.006;2023-06-01T09:31:53;5.10;;;2.00;;
77085;SDS011;66014;53.134;18.006;2023-06-01T09:34:21;6.00;;;2.10;;
77085;SDS011;66014;53.134;18.006;2023-06-01T09:36:48;6.10;;;1.90;;
77085;SDS011;66014;53.134;18.006;2023-06-01T09:39:20;5.70;;;2.20;;
77085;SDS011;66014;53.134;18.006;2023-06-01T09:44:24;5.60;;;2.10;;
77085;SDS011;66014;53.134;18.006;2023-06-01T09:46:56;7.90;;;2.10;;
77085;SDS011;66014;53.134;18.006;2023-06-01T09:49:31;6.30;;;3.30;;
77085;SDS011;66014;53.134;18.006;2023-06-01T09:57:07;5.50;;;1.70;;
77085;SDS011;66014;53.134;18.006;2023-06-01T09:59:41;12.20;;;2.20;;
77085;SDS011;66014;53.134;18.006;2023-06-01T10:02:19;7.10;;;2.10;;
77085;SDS011;66014;53.134;18.006;2023-06-01T10:04:48;5.10;;;2.00;;
77085;SDS011;66014;53.134;18.006;2023-06-01T10:07:27;6.10;;;1.90;;
77085;SDS011;66014;53.134;18.006;2023-06-01T10:09:57;6.00;;;1.90;;
77085;SDS011;66014;53.134;18.006;2023-06-01T10:12:28;6.60;;;2.20;;
77085;SDS011;66014;53.134;18.006;2023-06-01T10:14:55;4.40;;;1.80;;
77085;SDS011;66014;53.134;18.006;2023-06-01T10:17:23;5.70;;;2.00;;
77085;SDS011;66014;53.134;18.006;2023-06-01T10:19:51;6.00;;;2.40;;
77085;SDS011;66014;53.134;18.006;2023-06-01T10:22:17;7.60;;;1.80;;
77085;SDS011;66014;53.134;18.006;2023-06-01T10:24:44;7.10;;;1.90;;
77085;SDS011;66014;53.134;18.006;2023-06-01T10:27:27;6.00;;;1.90;;
77085;SDS011;66014;53.134;18.006;2023-06-01T10:29:59;5.00;;;2.60;;
77085;SDS011;66014;53.134;18.006;2023-06-01T10:35:50;6.10;;;2.10;;
77085;SDS011;66014;53.134;18.006;2023-06-01T10:40:47;6.20;;;2.30;;
77085;SDS011;66014;53.134;18.006;2023-06-01T10:46:02;6.70;;;2.50;;
77085;SDS011;66014;53.134;18.006;2023-06-01T10:51:19;4.70;;;2.10;;
77085;SDS011;66014;53.134;18.006;2023-06-01T10:53:47;4.00;;;1.90;;
77085;SDS011;66014;53.134;18.006;2023-06-01T11:01:33;7.90;;;2.00;;
77085;SDS011;66014;53.134;18.006;2023-06-01T11:04:01;10.60;;;2.10;;
77085;SDS011;66014;53.134;18.006;2023-06-01T11:06:41;6.40;;;2.20;;
77085;SDS011;66014;53.134;18.006;2023-06-01T11:09:12;4.60;;;1.80;;
77085;SDS011;66014;53.134;18.006;2023-06-01T11:14:20;7.70;;;2.00;;
77085;SDS011;66014;53.134;18.006;2023-06-01T11:16:50;5.80;;;2.10;;
77085;SDS011;66014;53.134;18.006;2023-06-01T11:21:47;8.40;;;2.20;;
77085;SDS011;66014;53.134;18.006;2023-06-01T11:24:15;5.50;;;1.60;;
77085;SDS011;66014;53.134;18.006;2023-06-01T11:26:44;5.40;;;2.00;;
77085;SDS011;66014;53.134;18.006;2023-06-01T11:29:15;4.60;;;1.80;;
77085;SDS011;66014;53.134;18.006;2023-06-01T11:31:52;5.90;;;1.90;;
77085;SDS011;66014;53.134;18.006;2023-06-01T11:34:33;4.40;;;1.80;;
77085;SDS011;66014;53.134;18.006;2023-06-01T11:37:14;4.70;;;1.70;;
77085;SDS011;66014;53.134;18.006;2023-06-01T11:39:43;4.30;;;1.60;;
77085;SDS011;66014;53.134;18.006;2023-06-01T11:42:19;5.20;;;1.60;;
77085;SDS011;66014;53.134;18.006;2023-06-01T11:44:58;4.70;;;1.50;;
77085;SDS011;66014;53.134;18.006;2023-06-01T11:47:28;5.10;;;1.60;;
77085;SDS011;66014;53.134;18.006;2023-06-01T11:49:57;4.50;;;1.70;;
77085;SDS011;66014;53.134;18.006;2023-06-01T11:52:24;4.30;;;1.60;;
77085;SDS011;66014;53.134;18.006;2023-06-01T11:54:53;4.20;;;1.40;;
77085;SDS011;66014;53.134;18.006;2023-06-01T11:57:20;4.00;;;1.50;;
77085;SDS011;66014;53.134;18.006;2023-06-01T11:59:47;5.00;;;1.60;;
77085;SDS011;66014;53.134;18.006;2023-06-01T12:02:23;4.50;;;1.50;;
77085;SDS011;66014;53.134;18.006;2023-06-01T12:07:28;5.00;;;1.60;;
77085;SDS011;66014;53.134;18.006;2023-06-01T12:09:55;4.40;;;1.50;;
77085;SDS011;66014;53.134;18.006;2023-06-01T12:12:23;5.40;;;1.60;;
77085;SDS011;66014;53.134;18.006;2023-06-01T12:14:51;5.80;;;1.70;;
77085;SDS011;66014;53.134;18.006;2023-06-01T12:17:18;5.80;;;1.90;;
77085;SDS011;66014;53.134;18.006;2023-06-01T12:19:45;7.70;;;2.00;;
77085;SDS011;66014;53.134;18.006;2023-06-01T12:22:16;5.80;;;1.80;;
77085;SDS011;66014;53.134;18.006;2023-06-01T12:24:43;6.70;;;2.10;;
77085;SDS011;66014;53.134;18.006;2023-06-01T12:27:14;6.40;;;1.90;;
77085;SDS011;66014;53.134;18.006;2023-06-01T12:32:14;3.40;;;1.50;;
77085;SDS011;66014;53.134;18.006;2023-06-01T12:34:44;5.30;;;1.70;;
77085;SDS011;66014;53.134;18.006;2023-06-01T12:37:32;5.70;;;1.80;;
77085;SDS011;66014;53.134;18.006;2023-06-01T12:40:01;3.90;;;1.50;;
77085;SDS011;66014;53.134;18.006;2023-06-01T12:42:36;5.70;;;1.80;;
77085;SDS011;66014;53.134;18.006;2023-06-01T12:45:04;4.70;;;1.90;;
77085;SDS011;66014;53.134;18.006;2023-06-01T12:47:35;4.20;;;1.80;;
77085;SDS011;66014;53.134;18.006;2023-06-01T12:50:10;6.20;;;1.40;;
77085;SDS011;66014;53.134;18.006;2023-06-01T12:52:39;3.00;;;1.30;;
77085;SDS011;66014;53.134;18.006;2023-06-01T12:55:08;4.60;;;1.70;;
77085;SDS011;66014;53.134;18.006;2023-06-01T12:57:35;3.50;;;1.70;;
77085;SDS011;66014;53.134;18.006;2023-06-01T13:00:04;4.30;;;1.80;;
77085;SDS011;66014;53.134;18.006;2023-06-01T13:02:32;5.30;;;2.00;;
77085;SDS011;66014;53.134;18.006;2023-06-01T13:05:00;4.60;;;1.60;;
77085;SDS011;66014;53.134;18.006;2023-06-01T13:07:27;6.10;;;1.80;;
77085;SDS011;66014;53.134;18.006;2023-06-01T13:09:54;5.10;;;1.70;;
77085;SDS011;66014;53.134;18.006;2023-06-01T13:12:20;4.90;;;1.70;;
77085;SDS011;66014;53.134;18.006;2023-06-01T13:14:47;4.60;;;2.10;;
77085;SDS011;66014;53.134;18.006;2023-06-01T13:17:17;5.40;;;2.00;;
77085;SDS011;66014;53.134;18.006;2023-06-01T13:19:44;7.20;;;2.30;;
77085;SDS011;66014;53.134;18.006;2023-06-01T13:22:12;4.80;;;2.00;;
77085;SDS011;66014;53.134;18.006;2023-06-01T13:24:39;6.50;;;1.90;;
77085;SDS011;66014;53.134;18.006;2023-06-01T13:27:05;4.60;;;1.90;;
77085;SDS011;66014;53.134;18.006;2023-06-01T13:29:34;3.90;;;1.50;;
77085;SDS011;66014;53.134;18.006;2023-06-01T13:32:01;7.40;;;1.90;;
77085;SDS011;66014;53.134;18.006;2023-06-01T13:34:29;5.40;;;1.80;;
77085;SDS011;66014;53.134;18.006;2023-06-01T13:36:55;8.50;;;2.20;;
77085;SDS011;66014;53.134;18.006;2023-06-01T13:39:23;4.60;;;2.00;;
77085;SDS011;66014;53.134;18.006;2023-06-01T13:41:50;7.30;;;2.30;;
77085;SDS011;66014;53.134;18.006;2023-06-01T13:44:16;5.20;;;1.90;;
77085;SDS011;66014;53.134;18.006;2023-06-01T13:46:44;4.50;;;1.90;;
77085;SDS011;66014;53.134;18.006;2023-06-01T13:49:10;6.20;;;2.10;;
77085;SDS011;66014;53.134;18.006;2023-06-01T13:51:37;3.80;;;2.00;;
77085;SDS011;66014;53.134;18.006;2023-06-01T13:54:04;5.70;;;2.10;;
77085;SDS011;66014;53.134;18.006;2023-06-01T13:56:31;3.40;;;1.70;;
77085;SDS011;66014;53.134;18.006;2023-06-01T13:58:58;6.40;;;2.20;;
77085;SDS011;66014;53.134;18.006;2023-06-01T14:01:24;8.40;;;2.10;;
77085;SDS011;66014;53.134;18.006;2023-06-01T14:03:53;7.90;;;2.30;;
77085;SDS011;66014;53.134;18.006;2023-06-01T14:06:20;6.20;;;1.70;;
77085;SDS011;66014;53.134;18.006;2023-06-01T14:08:46;6.30;;;2.20;;
77085;SDS011;66014;53.134;18.006;2023-06-01T14:11:13;4.80;;;2.20;;
77085;SDS011;66014;53.134;18.006;2023-06-01T14:13:39;5.80;;;1.90;;
77085;SDS011;66014;53.134;18.006;2023-06-01T14:16:06;7.80;;;1.90;;
77085;SDS011;66014;53.134;18.006;2023-06-01T14:18:32;6.10;;;1.90;;
77085;SDS011;66014;53.134;18.006;2023-06-01T14:20:59;5.60;;;1.90;;
77085;SDS011;66014;53.134;18.006;2023-06-01T14:23:26;8.20;;;2.20;;
77085;SDS011;66014;53.134;18.006;2023-06-01T14:25:52;6.10;;;2.00;;
77085;SDS011;66014;53.134;18.006;2023-06-01T14:28:21;4.40;;;2.00;;
77085;SDS011;66014;53.134;18.006;2023-06-01T14:30:47;5.60;;;2.10;;
77085;SDS011;66014;53.134;18.006;2023-06-01T14:33:14;6.90;;;1.90;;
77085;SDS011;66014;53.134;18.006;2023-06-01T14:35:40;6.40;;;1.90;;
77085;SDS011;66014;53.134;18.006;2023-06-01T14:38:07;5.50;;;2.00;;
77085;SDS011;66014;53.134;18.006;2023-06-01T14:40:34;5.10;;;2.00;;
77085;SDS011;66014;53.134;18.006;2023-06-01T14:43:00;5.70;;;2.10;;
77085;SDS011;66014;53.134;18.006;2023-06-01T14:45:27;6.50;;;2.30;;
77085;SDS011;66014;53.134;18.006;2023-06-01T14:47:53;4.20;;;1.90;;
77085;SDS011;66014;53.134;18.006;2023-06-01T14:50:20;4.90;;;1.90;;
77085;SDS011;66014;53.134;18.006;2023-06-01T14:52:46;5.00;;;1.80;;
77085;SDS011;66014;53.134;18.006;2023-06-01T14:55:13;5.50;;;1.80;;
77085;SDS011;66014;53.134;18.006;2023-06-01T14:57:40;7.40;;;2.50;;
77085;SDS011;66014;53.134;18.006;2023-06-01T15:00:07;5.60;;;2.20;;
77085;SDS011;66014;53.134;18.006;2023-06-01T15:02:35;5.60;;;1.90;;
77085;SDS011;66014;53.134;18.006;2023-06-01T15:05:01;6.20;;;2.70;;
77085;SDS011;66014;53.134;18.006;2023-06-01T15:07:28;13.00;;;2.60;;
77085;SDS011;66014;53.134;18.006;2023-06-01T15:09:54;6.10;;;2.00;;
77085;SDS011;66014;53.134;18.006;2023-06-01T15:12:21;6.70;;;2.00;;
77085;SDS011;66014;53.134;18.006;2023-06-01T15:14:48;10.20;;;4.20;;
77085;SDS011;66014;53.134;18.006;2023-06-01T15:17:16;8.50;;;3.40;;
77085;SDS011;66014;53.134;18.006;2023-06-01T15:19:43;6.80;;;2.90;;
77085;SDS011;66014;53.134;18.006;2023-06-01T15:22:09;6.10;;;2.40;;
77085;SDS011;66014;53.134;18.006;2023-06-01T15:24:36;6.60;;;2.70;;
77085;SDS011;66014;53.134;18.006;2023-06-01T15:27:05;4.70;;;2.10;;
77085;SDS011;66014;53.134;18.006;2023-06-01T15:29:33;8.40;;;2.30;;